Time;durP1;ratioP1;P1;durP2;ratioP2;P2;SDS_P1;SDS_P2;PMS_P1;PMS_P2;Temp;Humidity;BMP_temperature;BMP_pressure;BME280_temperature;BME280_humidity;BME280_pressure;Samples;Min_cycle;Max_cycle;Signal;HPM_P1;HPM_P2
2022/11/25 00:00:50;;;;;;;0.10;0.10;;;;;;;7.77;100.00;100917.75;4981791;28;20523;-74
2022/11/25 00:03:15;;;;;;;0.10;0.10;;;;;;;7.57;100.00;100911.00;4975852;28;20101;-74
2022/11/25 00:05:41;;;;;;;0.20;0.20;;;;;;;7.41;100.00;100885.28;4985165;28;20105;-73
2022/11/25 00:08:07;;;;;;;0.10;0.10;;;;;;;7.58;100.00;100907.38;4981721;28;20026;-74
2022/11/25 00:10:32;;;;;;;0.10;0.10;;;;;;;7.58;100.00;100910.91;4975707;28;20031;-74
2022/11/25 00:12:57;;;;;;;0.10;0.10;;;;;;;7.68;100.00;100900.50;4979730;28;20037;-74
2022/11/25 00:15:22;;;;;;;0.20;0.20;;;;;;;7.62;100.00;100903.56;4979024;28;20026;-74
2022/11/25 00:17:48;;;;;;;0.10;0.10;;;;;;;7.71;100.00;100870.03;4975362;28;20027;-73
2022/11/25 00:20:13;;;;;;;0.20;0.20;;;;;;;7.69;100.00;100869.28;4958297;28;20397;-75
2022/11/25 00:22:39;;;;;;;0.10;0.10;;;;;;;7.65;100.00;100887.31;4978545;28;20118;-74
2022/11/25 00:25:04;;;;;;;0.10;0.10;;;;;;;7.60;100.00;100898.31;4988579;28;20751;-73
2022/11/25 00:27:30;;;;;;;0.10;0.10;;;;;;;7.34;100.00;100863.44;4982773;28;20039;-73
2022/11/25 00:29:55;;;;;;;0.20;0.20;;;;;;;7.46;100.00;100876.97;4988898;28;20365;-74
2022/11/25 00:32:20;;;;;;;0.20;0.20;;;;;;;7.66;100.00;100886.38;4985838;28;20061;-73
2022/11/25 00:34:46;;;;;;;0.20;0.20;;;;;;;7.38;100.00;100884.63;4973804;28;20026;-74
2022/11/25 00:37:11;;;;;;;0.10;0.10;;;;;;;7.47;100.00;100890.25;4992901;28;20033;-73
2022/11/25 00:39:37;;;;;;;0.20;0.20;;;;;;;7.50;100.00;100884.69;4997672;28;20030;-73
2022/11/25 00:44:46;;;;;;;0.10;0.10;;;;;;;7.41;100.00;100865.75;4990315;28;20045;-74
2022/11/25 00:47:14;;;;;;;0.10;0.10;;;;;;;7.48;100.00;100880.41;4989794;28;20632;-74
2022/11/25 00:49:41;;;;;;;0.10;0.10;;;;;;;7.55;100.00;100872.88;4974013;28;20026;-75
2022/11/25 00:52:07;;;;;;;0.17;0.17;;;;;;;7.45;100.00;100881.47;4973419;28;20133;-74
2022/11/25 00:54:33;;;;;;;0.13;0.13;;;;;;;7.39;100.00;100847.13;4971491;28;20498;-74
2022/11/25 00:56:59;;;;;;;0.10;0.10;;;;;;;7.51;100.00;100877.53;4992577;28;20022;-74
2022/11/25 00:59:24;;;;;;;0.10;0.10;;;;;;;7.37;100.00;100886.44;4973961;28;20125;-74
2022/11/25 01:01:49;;;;;;;0.20;0.20;;;;;;;7.40;100.00;100878.22;4989409;28;20439;-74
2022/11/25 01:04:15;;;;;;;0.10;0.10;;;;;;;7.52;100.00;100883.75;4982926;28;20038;-74
2022/11/25 01:06:40;;;;;;;0.10;0.10;;;;;;;7.50;100.00;100878.47;4969700;28;20030;-74
2022/11/25 01:09:06;;;;;;;0.13;0.13;;;;;;;7.45;100.00;100873.44;4963964;28;20081;-74
2022/11/25 01:11:32;;;;;;;0.20;0.20;;;;;;;7.60;100.00;100879.63;4976327;28;20026;-76
2022/11/25 01:13:57;;;;;;;0.20;0.20;;;;;;;7.62;100.00;100875.03;4978208;28;20030;-75
2022/11/25 01:16:23;;;;;;;0.10;0.10;;;;;;;7.63;100.00;100875.88;4958057;28;20540;-75
2022/11/25 01:18:52;;;;;;;0.10;0.10;;;;;;;7.73;100.00;100878.81;4987167;28;20022;-75
2022/11/25 01:21:22;;;;;;;0.10;0.10;;;;;;;7.40;100.00;100848.84;4970921;28;20079;-74
2022/11/25 01:23:49;;;;;;;0.10;0.10;;;;;;;7.63;100.00;100867.84;4968435;28;20037;-75
2022/11/25 01:26:19;;;;;;;0.20;0.20;;;;;;;7.68;100.00;100880.94;4988835;28;20367;-74
2022/11/25 01:28:44;;;;;;;0.10;0.10;;;;;;;7.77;100.00;100865.16;4964577;28;20241;-76
2022/11/25 01:31:18;;;;;;;0.20;0.20;;;;;;;7.79;100.00;100871.25;4988202;28;20034;-74
2022/11/25 01:33:44;;;;;;;0.10;0.10;;;;;;;7.81;100.00;100881.84;4985943;28;20116;-74
2022/11/25 01:36:12;;;;;;;0.10;0.10;;;;;;;7.84;100.00;100881.66;4970491;28;20126;-75
2022/11/25 01:38:38;;;;;;;0.10;0.10;;;;;;;7.91;100.00;100885.63;4988648;28;20113;-74
2022/11/25 01:41:04;;;;;;;0.20;0.20;;;;;;;7.79;100.00;100889.09;4983557;28;20032;-74
2022/11/25 01:43:30;;;;;;;0.13;0.13;;;;;;;7.80;100.00;100894.38;4988078;28;20030;-74
2022/11/25 01:46:08;;;;;;;0.10;0.10;;;;;;;7.73;100.00;100898.38;4982410;28;20078;-73
2022/11/25 01:48:50;;;;;;;0.20;0.20;;;;;;;7.95;100.00;100896.97;4963931;28;20045;-74
2022/11/25 01:51:25;;;;;;;0.20;0.20;;;;;;;7.81;100.00;100896.06;4988333;28;20030;-74
2022/11/25 01:53:51;;;;;;;0.10;0.10;;;;;;;8.00;100.00;100892.19;4971264;28;20309;-75
2022/11/25 01:56:18;;;;;;;0.15;0.15;;;;;;;7.81;100.00;100880.00;4992331;28;20358;-75
2022/11/25 01:58:44;;;;;;;0.10;0.10;;;;;;;7.94;100.00;100892.59;4984613;28;20126;-74
2022/11/25 02:01:09;;;;;;;0.10;0.10;;;;;;;7.95;100.00;100899.66;4967072;28;20498;-74
2022/11/25 02:03:40;;;;;;;0.20;0.20;;;;;;;8.18;100.00;100897.25;4985024;28;20366;-74
2022/11/25 02:06:22;;;;;;;0.10;0.10;;;;;;;8.02;100.00;100868.88;4963301;28;20042;-74
2022/11/25 02:08:53;;;;;;;0.20;0.20;;;;;;;8.13;100.00;100894.03;4973924;28;20031;-75
2022/11/25 02:11:19;;;;;;;0.17;0.17;;;;;;;7.96;100.00;100880.81;4958260;28;20081;-73
2022/11/25 02:13:46;;;;;;;0.20;0.20;;;;;;;8.16;100.00;100894.69;4955393;28;20836;-75
2022/11/25 02:16:11;;;;;;;0.20;0.20;;;;;;;8.17;100.00;100899.09;4964670;28;20085;-74
2022/11/25 02:18:37;;;;;;;0.20;0.20;;;;;;;8.13;100.00;100910.06;4969362;28;20032;-73
2022/11/25 02:21:02;;;;;;;0.10;0.10;;;;;;;7.88;100.00;100901.88;4967827;28;20121;-73
2022/11/25 02:23:39;;;;;;;0.13;0.13;;;;;;;8.14;100.00;100914.47;4977462;28;21569;-74
2022/11/25 02:26:04;;;;;;;0.20;0.20;;;;;;;8.08;100.00;100913.06;4966047;28;20030;-73
2022/11/25 02:28:32;;;;;;;0.10;0.10;;;;;;;8.15;100.00;100897.47;4991280;28;20067;-76
2022/11/25 02:30:58;;;;;;;0.10;0.10;;;;;;;8.35;100.00;100915.69;4969262;28;20037;-73
2022/11/25 02:33:24;;;;;;;0.10;0.10;;;;;;;8.21;100.00;100905.94;4959907;28;20035;-73
2022/11/25 02:36:00;;;;;;;0.10;0.10;;;;;;;8.44;100.00;100914.25;4985936;28;20026;-73
2022/11/25 02:38:40;;;;;;;0.10;0.10;;;;;;;8.49;100.00;100921.97;4968829;28;20127;-74
2022/11/25 02:41:11;;;;;;;0.20;0.20;;;;;;;8.38;100.00;100917.34;4985028;28;20045;-73
2022/11/25 02:43:36;;;;;;;0.10;0.10;;;;;;;8.36;100.00;100908.53;4959918;28;20026;-73
2022/11/25 02:46:10;;;;;;;0.10;0.10;;;;;;;8.69;100.00;100926.00;4960217;28;20105;-73
2022/11/25 02:48:37;;;;;;;0.10;0.10;;;;;;;8.96;100.00;100933.91;4979208;28;21085;-74
2022/11/25 02:51:04;;;;;;;0.10;0.10;;;;;;;8.97;100.00;100927.59;4965851;28;20117;-75
2022/11/25 02:53:29;;;;;;;0.10;0.10;;;;;;;9.13;100.00;100929.22;4964168;28;20481;-73
2022/11/25 02:55:55;;;;;;;0.17;0.17;;;;;;;8.64;100.00;100896.00;4961026;28;20034;-73
2022/11/25 02:58:20;;;;;;;0.10;0.10;;;;;;;8.87;100.00;100906.94;4964884;28;20038;-73
2022/11/25 03:00:46;;;;;;;0.10;0.10;;;;;;;8.98;100.00;100941.88;4981132;28;20128;-72
2022/11/25 03:03:12;;;;;;;0.10;0.10;;;;;;;8.96;100.00;100944.63;4964878;28;20052;-73
2022/11/25 03:05:38;;;;;;;0.10;0.10;;;;;;;8.94;100.00;100945.72;4978747;28;20038;-75
2022/11/25 03:08:04;;;;;;;0.10;0.10;;;;;;;8.96;100.00;100943.78;4966060;28;20042;-73
2022/11/25 03:10:29;;;;;;;0.10;0.10;;;;;;;9.07;100.00;100943.03;4971971;28;20034;-74
2022/11/25 03:12:55;;;;;;;0.10;0.10;;;;;;;9.06;100.00;100955.56;4979706;28;20496;-74
2022/11/25 03:15:20;;;;;;;0.10;0.10;;;;;;;8.83;100.00;100965.19;4979255;28;20313;-73
2022/11/25 03:17:46;;;;;;;0.10;0.10;;;;;;;8.78;100.00;100952.09;4975248;28;20030;-74
2022/11/25 03:20:13;;;;;;;0.10;0.10;;;;;;;8.67;100.00;100946.66;4978981;28;20869;-73
2022/11/25 03:22:39;;;;;;;0.10;0.10;;;;;;;8.79;100.00;100939.59;4977918;28;20025;-75
2022/11/25 03:25:05;;;;;;;0.10;0.10;;;;;;;8.67;100.00;100939.47;4963152;28;20032;-74
2022/11/25 03:27:32;;;;;;;0.10;0.10;;;;;;;8.44;100.00;100926.75;4967499;28;20038;-73
2022/11/25 03:29:57;;;;;;;0.10;0.10;;;;;;;8.47;100.00;100916.72;4975288;28;20328;-73
2022/11/25 03:32:23;;;;;;;0.10;0.10;;;;;;;8.40;100.00;100870.78;4978366;28;20042;-73
2022/11/25 03:34:48;;;;;;;0.10;0.10;;;;;;;8.55;100.00;100890.31;4984138;28;20018;-71
2022/11/25 03:37:13;;;;;;;0.20;0.20;;;;;;;8.65;100.00;100901.22;4977633;28;20038;-70
2022/11/25 03:39:38;;;;;;;0.13;0.13;;;;;;;8.49;100.00;100911.28;4973167;28;20030;-70
2022/11/25 03:42:04;;;;;;;0.10;0.10;;;;;;;8.31;100.00;100926.72;4978514;28;20053;-71
2022/11/25 03:44:29;;;;;;;0.10;0.10;;;;;;;8.11;100.00;100916.38;4978615;28;20397;-70
2022/11/25 03:46:54;;;;;;;0.10;0.10;;;;;;;8.09;100.00;100929.00;4976025;28;20492;-71
2022/11/25 03:49:20;;;;;;;0.10;0.10;;;;;;;8.07;100.00;100925.59;4957555;28;20392;-71
2022/11/25 03:51:46;;;;;;;0.10;0.10;;;;;;;8.13;100.00;100918.09;4976844;28;20031;-71
2022/11/25 03:54:11;;;;;;;0.10;0.10;;;;;;;8.15;100.00;100925.09;4976480;28;20348;-71
2022/11/25 03:56:36;;;;;;;0.10;0.10;;;;;;;8.14;100.00;100938.53;4978582;28;20027;-71
2022/11/25 03:59:02;;;;;;;0.10;0.10;;;;;;;8.08;100.00;100954.03;4974521;28;20113;-71
2022/11/25 04:01:27;;;;;;;0.10;0.10;;;;;;;8.09;100.00;100957.56;4986176;28;20464;-71
2022/11/25 04:03:52;;;;;;;0.10;0.10;;;;;;;8.06;100.00;100958.66;4980959;28;20070;-71
2022/11/25 04:06:20;;;;;;;0.10;0.10;;;;;;;8.02;100.00;100949.09;4969007;28;20027;-71
2022/11/25 04:08:46;;;;;;;0.05;0.05;;;;;;;8.07;100.00;100957.69;4984532;28;20113;-71
2022/11/25 04:11:11;;;;;;;0.08;0.08;;;;;;;8.00;100.00;100955.47;4978109;28;20045;-71
2022/11/25 04:13:37;;;;;;;0.10;0.10;;;;;;;7.97;100.00;100969.94;4951634;28;20454;-71
2022/11/25 04:16:02;;;;;;;0.10;0.10;;;;;;;7.93;100.00;100963.94;4977285;28;20772;-71
2022/11/25 04:18:28;;;;;;;0.10;0.10;;;;;;;7.95;100.00;100967.34;4978999;28;20664;-71
2022/11/25 04:20:53;;;;;;;0.10;0.10;;;;;;;7.98;100.00;100955.59;4974610;28;20062;-71
2022/11/25 04:23:18;;;;;;;0.10;0.10;;;;;;;7.99;100.00;100962.66;4980977;28;20717;-71
2022/11/25 04:25:44;;;;;;;0.10;0.10;;;;;;;7.99;100.00;100973.38;4980169;28;20062;-71
2022/11/25 04:28:09;;;;;;;0.17;0.17;;;;;;;7.88;100.00;100975.84;4987719;28;20030;-71
2022/11/25 04:30:35;;;;;;;0.10;0.10;;;;;;;7.73;100.00;100981.25;4987532;28;20089;-70
2022/11/25 04:33:01;;;;;;;0.10;0.10;;;;;;;7.71;100.00;100991.16;4986959;28;20531;-71
2022/11/25 04:35:26;;;;;;;0.10;0.10;;;;;;;7.79;100.00;100985.31;4984913;28;20031;-70
2022/11/25 04:37:52;;;;;;;0.10;0.10;;;;;;;7.71;100.00;100998.31;4982356;28;20029;-69
2022/11/25 04:40:17;;;;;;;0.20;0.20;;;;;;;7.55;100.00;101001.97;4984080;28;20473;-70
2022/11/25 04:42:42;;;;;;;0.10;0.10;;;;;;;7.40;100.00;101014.47;4963836;28;20030;-71
2022/11/25 04:45:11;;;;;;;0.10;0.10;;;;;;;7.19;100.00;100992.59;4979017;28;20026;-71
2022/11/25 04:47:38;;;;;;;0.10;0.10;;;;;;;7.26;100.00;101022.47;4983458;28;20050;-70
2022/11/25 04:50:06;;;;;;;0.10;0.10;;;;;;;7.44;100.00;101007.09;4981518;28;20047;-70
2022/11/25 04:52:32;;;;;;;0.20;0.20;;;;;;;7.45;100.00;101020.38;4970085;28;20404;-70
2022/11/25 04:54:58;;;;;;;0.10;0.10;;;;;;;7.40;100.00;101021.63;4995585;28;20068;-70
2022/11/25 04:57:23;;;;;;;0.10;0.10;;;;;;;7.41;100.00;101024.19;4990933;28;20034;-71
2022/11/25 04:59:48;;;;;;;0.10;0.10;;;;;;;7.46;100.00;101023.91;4982528;28;20077;-71
2022/11/25 05:02:22;;;;;;;0.10;0.10;;;;;;;7.50;100.00;101026.31;4981652;28;20085;-70
2022/11/25 05:04:49;;;;;;;0.15;0.15;;;;;;;7.71;100.00;101007.22;4980247;28;20443;-71
2022/11/25 05:07:16;;;;;;;0.10;0.10;;;;;;;7.81;100.00;101028.84;4964424;28;20128;-71
2022/11/25 05:09:42;;;;;;;0.20;0.20;;;;;;;7.79;100.00;101023.63;4983319;28;20033;-70
2022/11/25 05:12:11;;;;;;;0.10;0.10;;;;;;;7.69;100.00;101024.28;4980180;28;20386;-71
2022/11/25 05:14:36;;;;;;;0.10;0.10;;;;;;;7.58;100.00;101031.16;4978095;28;20030;-71
2022/11/25 05:17:03;;;;;;;0.10;0.10;;;;;;;7.87;100.00;101027.59;4978689;28;20477;-72
2022/11/25 05:19:28;;;;;;;0.10;0.10;;;;;;;7.89;100.00;101025.69;4978050;28;20131;-70
2022/11/25 05:21:54;;;;;;;0.10;0.10;;;;;;;7.60;100.00;101031.06;4979055;28;20034;-71
2022/11/25 05:24:19;;;;;;;0.10;0.10;;;;;;;7.55;100.00;101039.38;4985133;28;20038;-71
2022/11/25 05:26:44;;;;;;;0.10;0.10;;;;;;;7.81;100.00;101043.06;4982015;28;20031;-72
2022/11/25 05:29:10;;;;;;;0.10;0.10;;;;;;;7.45;100.00;101039.09;4981339;28;20034;-71
2022/11/25 05:31:35;;;;;;;0.20;0.20;;;;;;;7.26;100.00;101049.19;4980105;28;20838;-71
2022/11/25 05:34:01;;;;;;;0.10;0.10;;;;;;;7.31;100.00;101047.94;4981527;28;20022;-71
2022/11/25 05:36:26;;;;;;;0.15;0.15;;;;;;;7.36;100.00;101050.31;4987533;28;20042;-71
2022/11/25 05:38:51;;;;;;;0.10;0.10;;;;;;;7.35;100.00;101052.16;4982134;28;20034;-71
2022/11/25 05:41:17;;;;;;;0.15;0.15;;;;;;;7.08;100.00;101029.78;4985168;28;20084;-71
2022/11/25 05:43:42;;;;;;;0.10;0.10;;;;;;;7.00;100.00;101038.25;4966200;28;20029;-71
2022/11/25 05:46:08;;;;;;;0.10;0.10;;;;;;;7.14;100.00;101048.13;4985495;28;20856;-71
2022/11/25 05:48:34;;;;;;;0.10;0.10;;;;;;;6.88;100.00;101047.84;4978183;28;20041;-71
2022/11/25 05:51:00;;;;;;;0.10;0.10;;;;;;;7.04;100.00;101053.13;4979301;28;20382;-71
2022/11/25 05:53:25;;;;;;;0.10;0.10;;;;;;;6.88;100.00;101043.34;4980397;28;20030;-71
2022/11/25 05:55:55;;;;;;;0.10;0.10;;;;;;;6.95;100.00;101041.19;4980024;28;20026;-71
2022/11/25 05:58:21;;;;;;;0.10;0.10;;;;;;;6.85;100.00;101024.84;4979349;28;20030;-71
2022/11/25 06:00:46;;;;;;;0.10;0.10;;;;;;;6.93;100.00;101058.25;4966015;28;20629;-71
2022/11/25 06:03:11;;;;;;;0.17;0.17;;;;;;;6.98;100.00;101070.38;4984490;28;20041;-72
2022/11/25 06:05:37;;;;;;;0.10;0.10;;;;;;;7.04;100.00;101062.00;4983678;28;20514;-71
2022/11/25 06:08:02;;;;;;;0.10;0.10;;;;;;;6.99;100.00;101068.56;4979465;28;20041;-71
2022/11/25 06:10:27;;;;;;;0.10;0.10;;;;;;;7.18;100.00;101073.66;4979477;28;20035;-71
2022/11/25 06:12:53;;;;;;;0.10;0.10;;;;;;;7.07;100.00;101078.78;4977976;28;20038;-71
2022/11/25 06:15:18;;;;;;;0.10;0.10;;;;;;;6.90;100.00;101093.97;4962937;28;20101;-71
2022/11/25 06:17:43;;;;;;;0.10;0.10;;;;;;;6.78;100.00;101094.69;4984753;28;20469;-70
2022/11/25 06:20:09;;;;;;;0.10;0.10;;;;;;;6.98;100.00;101088.22;4976451;28;20037;-72
2022/11/25 06:22:35;;;;;;;0.15;0.15;;;;;;;6.93;100.00;101093.78;4982495;28;20027;-71
2022/11/25 06:25:00;;;;;;;0.20;0.20;;;;;;;6.83;100.00;101098.81;4978882;28;20034;-71
2022/11/25 06:27:25;;;;;;;0.10;0.10;;;;;;;6.95;100.00;101093.72;4978301;28;20038;-71
2022/11/25 06:29:52;;;;;;;0.10;0.10;;;;;;;7.03;100.00;101096.78;4979035;28;20054;-70
2022/11/25 06:32:17;;;;;;;0.10;0.10;;;;;;;6.80;100.00;101098.16;4976982;28;20053;-71
2022/11/25 06:34:43;;;;;;;0.10;0.10;;;;;;;6.55;100.00;101073.72;4980771;28;20037;-70
2022/11/25 06:37:08;;;;;;;0.10;0.10;;;;;;;6.71;100.00;101094.19;4978300;28;20027;-71
2022/11/25 06:39:33;;;;;;;0.10;0.10;;;;;;;6.56;100.00;101096.78;4979090;28;20033;-70
2022/11/25 06:41:59;;;;;;;0.10;0.10;;;;;;;6.40;100.00;101075.44;4979962;28;20088;-71
2022/11/25 06:44:24;;;;;;;0.10;0.10;;;;;;;6.36;100.00;101095.22;4983380;28;20377;-71
2022/11/25 06:46:49;;;;;;;0.10;0.10;;;;;;;6.42;100.00;101104.72;4982287;28;20096;-71
2022/11/25 06:49:15;;;;;;;0.10;0.10;;;;;;;6.21;100.00;101122.75;4976981;28;20121;-71
2022/11/25 06:51:40;;;;;;;0.10;0.10;;;;;;;6.29;100.00;101112.53;4975743;28;20064;-71
2022/11/25 06:54:07;;;;;;;0.10;0.10;;;;;;;6.62;100.00;101119.59;4976153;28;20026;-71
2022/11/25 06:56:32;;;;;;;0.10;0.10;;;;;;;6.65;100.00;101130.06;4979056;28;20037;-71
2022/11/25 06:58:58;;;;;;;0.10;0.10;;;;;;;6.61;100.00;101136.56;4980737;28;20026;-71
2022/11/25 07:01:27;;;;;;;0.10;0.10;;;;;;;6.73;100.00;101132.34;4978181;28;20065;-71
2022/11/25 07:04:02;;;;;;;0.10;0.10;;;;;;;6.69;100.00;101141.47;4970294;28;20038;-69
2022/11/25 07:06:27;;;;;;;0.10;0.10;;;;;;;6.54;100.00;101146.69;4953913;28;20037;-72
2022/11/25 07:08:52;;;;;;;0.10;0.10;;;;;;;6.65;100.00;101143.41;4970383;28;20026;-73
2022/11/25 07:11:19;;;;;;;0.17;0.17;;;;;;;6.46;100.00;101154.28;4964832;28;20040;-73
2022/11/25 07:13:45;;;;;;;0.10;0.10;;;;;;;6.57;100.00;101148.34;4935381;28;20686;-71
2022/11/25 07:16:11;;;;;;;0.10;0.10;;;;;;;6.58;100.00;101150.91;4980882;28;20022;-73
2022/11/25 07:18:37;;;;;;;0.10;0.10;;;;;;;6.51;100.00;101151.34;4958175;28;20590;-73
2022/11/25 07:21:17;;;;;;;0.10;0.10;;;;;;;6.22;100.00;101156.47;4973087;28;20061;-73
2022/11/25 07:23:43;;;;;;;0.10;0.10;;;;;;;6.44;100.00;101161.50;4975694;28;20102;-73
2022/11/25 07:26:12;;;;;;;0.10;0.10;;;;;;;6.44;100.00;101164.19;4952396;28;20039;-74
2022/11/25 07:28:38;;;;;;;0.20;0.20;;;;;;;6.26;100.00;101161.56;4974107;28;20034;-73
2022/11/25 07:31:06;;;;;;;0.10;0.10;;;;;;;6.19;100.00;101169.97;4972224;28;20042;-75
2022/11/25 07:33:31;;;;;;;0.17;0.17;;;;;;;6.23;100.00;101179.53;4962125;28;20022;-73
2022/11/25 07:36:00;;;;;;;0.10;0.10;;;;;;;6.22;100.00;101178.69;4971941;28;20037;-74
2022/11/25 07:38:26;;;;;;;0.10;0.10;;;;;;;6.37;100.00;101163.63;4975420;28;20555;-74
2022/11/25 07:40:52;;;;;;;0.10;0.10;;;;;;;6.49;100.00;101174.59;4971584;28;20057;-74
2022/11/25 07:43:17;;;;;;;0.10;0.10;;;;;;;6.43;100.00;101192.63;4950459;28;20036;-74
2022/11/25 07:45:42;;;;;;;0.10;0.10;;;;;;;6.69;100.00;101198.34;4968549;28;20384;-74
2022/11/25 07:48:08;;;;;;;0.20;0.20;;;;;;;6.68;100.00;101195.78;4973206;28;20126;-73
2022/11/25 07:50:33;;;;;;;0.10;0.10;;;;;;;6.71;100.00;101207.13;4968971;28;20041;-72
2022/11/25 07:52:58;;;;;;;0.10;0.10;;;;;;;6.57;100.00;101170.53;4970210;28;20030;-72
2022/11/25 07:55:23;;;;;;;0.10;0.10;;;;;;;6.73;100.00;101210.56;4973805;28;20456;-74
2022/11/25 07:57:49;;;;;;;0.10;0.10;;;;;;;6.77;100.00;101218.41;4975814;28;20029;-74
2022/11/25 08:00:14;;;;;;;0.10;0.10;;;;;;;6.80;100.00;101211.09;4975433;28;20377;-73
2022/11/25 08:02:40;;;;;;;0.20;0.20;;;;;;;7.00;100.00;101222.47;4970527;28;20156;-74
2022/11/25 08:05:06;;;;;;;0.10;0.10;;;;;;;6.67;100.00;101197.56;4973718;28;20526;-74
2022/11/25 08:07:31;;;;;;;0.10;0.10;;;;;;;6.82;100.00;101225.22;4960308;28;20033;-74
2022/11/25 08:09:56;;;;;;;0.10;0.10;;;;;;;6.90;100.00;101239.00;4973508;28;20336;-73
2022/11/25 08:12:21;;;;;;;0.17;0.17;;;;;;;7.12;100.00;101251.13;4971869;28;20141;-72
2022/11/25 08:14:47;;;;;;;0.10;0.10;;;;;;;7.26;100.00;101245.00;4974999;28;20035;-74
2022/11/25 08:17:12;;;;;;;0.15;0.15;;;;;;;7.18;100.00;101242.78;4976020;28;20113;-72
2022/11/25 08:19:39;;;;;;;0.10;0.10;;;;;;;7.25;100.00;101242.44;4958428;28;20160;-74
2022/11/25 08:22:05;;;;;;;0.10;0.10;;;;;;;7.39;100.00;101246.97;4982453;28;20483;-74
2022/11/25 08:24:30;;;;;;;0.20;0.20;;;;;;;7.46;100.00;101249.19;4958209;28;20027;-73
2022/11/25 08:26:57;;;;;;;0.10;0.10;;;;;;;7.61;100.00;101257.25;4975066;28;20072;-73
2022/11/25 08:29:22;;;;;;;0.20;0.20;;;;;;;7.57;100.00;101255.72;4969793;28;20069;-73
2022/11/25 08:31:48;;;;;;;0.20;0.20;;;;;;;7.50;100.00;101253.41;4963287;28;20387;-74
2022/11/25 08:34:19;;;;;;;0.10;0.10;;;;;;;7.72;100.00;101262.84;4956801;28;20038;-73
2022/11/25 08:36:44;;;;;;;0.10;0.10;;;;;;;7.80;100.00;101278.41;4968492;28;20590;-72
2022/11/25 08:39:10;;;;;;;0.10;0.10;;;;;;;7.84;100.00;101276.41;4970532;28;20030;-72
2022/11/25 08:41:36;;;;;;;0.10;0.10;;;;;;;7.80;100.00;101259.69;4972962;28;20022;-76
2022/11/25 08:44:04;;;;;;;0.20;0.20;;;;;;;7.77;100.00;101278.59;4951847;28;20062;-72
2022/11/25 08:46:33;;;;;;;0.10;0.10;;;;;;;8.01;100.00;101281.63;4957983;28;20436;-72
2022/11/25 08:48:58;;;;;;;0.10;0.10;;;;;;;8.00;100.00;101287.94;4953163;28;20038;-74
2022/11/25 08:51:27;;;;;;;0.10;0.10;;;;;;;8.22;100.00;101292.81;4975371;28;20415;-73
2022/11/25 08:53:53;;;;;;;0.10;0.10;;;;;;;8.05;100.00;101261.78;4975734;28;20064;-74
2022/11/25 08:56:20;;;;;;;0.10;0.10;;;;;;;8.28;100.00;101288.94;4974786;28;20030;-73
2022/11/25 08:58:48;;;;;;;0.10;0.10;;;;;;;8.32;100.00;101295.84;4973803;28;20418;-73
2022/11/25 09:01:13;;;;;;;0.10;0.10;;;;;;;8.39;100.00;101294.47;4974138;28;20145;-73
2022/11/25 09:03:41;;;;;;;0.10;0.10;;;;;;;8.50;100.00;101296.53;4972686;28;20030;-73
2022/11/25 09:06:08;;;;;;;0.10;0.10;;;;;;;8.62;100.00;101294.91;4978250;28;20376;-74
2022/11/25 09:08:33;;;;;;;0.10;0.10;;;;;;;8.67;100.00;101311.53;4975745;28;20038;-73
2022/11/25 09:10:59;;;;;;;0.10;0.10;;;;;;;8.75;100.00;101310.22;4974798;28;20026;-73
2022/11/25 09:13:25;;;;;;;0.10;0.10;;;;;;;8.81;100.00;101293.75;4956502;28;20037;-73
2022/11/25 09:15:50;;;;;;;0.10;0.10;;;;;;;9.07;100.00;101318.03;4976344;28;20038;-73
2022/11/25 09:18:17;;;;;;;0.10;0.10;;;;;;;9.29;100.00;101325.53;4973597;28;20121;-75
2022/11/25 09:20:43;;;;;;;0.10;0.10;;;;;;;9.30;100.00;101298.66;4975391;28;20044;-73
2022/11/25 09:23:08;;;;;;;0.10;0.10;;;;;;;9.78;100.00;101320.59;4976184;28;20030;-73
2022/11/25 09:25:34;;;;;;;0.10;0.10;;;;;;;9.77;100.00;101330.44;4975405;28;20034;-73
2022/11/25 09:28:00;;;;;;;0.10;0.10;;;;;;;9.93;100.00;101334.81;4973890;28;20023;-73
2022/11/25 09:30:25;;;;;;;0.10;0.10;;;;;;;10.40;100.00;101336.09;4974766;28;20648;-73
2022/11/25 09:32:52;;;;;;;0.10;0.10;;;;;;;10.38;100.00;101342.47;4974471;28;20026;-74
2022/11/25 09:35:18;;;;;;;0.13;0.13;;;;;;;10.63;100.00;101350.59;4974572;28;20033;-73
2022/11/25 09:37:43;;;;;;;0.10;0.10;;;;;;;10.92;100.00;101312.75;4980867;28;20027;-73
2022/11/25 09:40:34;;;;;;;0.10;0.10;;;;;;;11.43;100.00;101363.81;4972654;28;20045;-73
2022/11/25 09:46:42;;;;;;;0.10;0.10;;;;;;;11.53;100.00;101373.78;4967048;28;20045;-73
2022/11/25 09:49:28;;;;;;;0.10;0.10;;;;;;;11.49;100.00;101372.28;4959446;28;20077;-73
2022/11/25 09:52:05;;;;;;;0.10;0.10;;;;;;;11.67;100.00;101380.81;4983744;28;20468;-73
2022/11/25 09:54:52;;;;;;;0.10;0.10;;;;;;;12.43;100.00;101377.88;4949105;28;20034;-74
2022/11/25 09:57:28;;;;;;;0.10;0.10;;;;;;;12.61;96.14;101372.03;4970976;28;20060;-73
2022/11/25 10:00:10;;;;;;;0.10;0.10;;;;;;;13.05;94.38;101385.66;4959224;28;20038;-73
2022/11/25 10:03:01;;;;;;;0.10;0.10;;;;;;;12.84;92.11;101385.53;4977069;28;20113;-73
2022/11/25 10:05:51;;;;;;;0.10;0.10;;;;;;;13.04;93.06;101382.09;4957532;28;20030;-73
2022/11/25 10:08:21;;;;;;;0.10;0.10;;;;;;;13.41;91.89;101381.00;4950667;28;20023;-73
2022/11/25 10:10:52;;;;;;;0.10;0.10;;;;;;;13.42;89.97;101384.56;4961388;28;20034;-72
2022/11/25 10:13:25;;;;;;;0.10;0.10;;;;;;;13.49;89.82;101389.31;4964610;28;20129;-72
2022/11/25 10:15:53;;;;;;;0.00;0.00;;;;;;;13.90;88.85;101391.44;4971382;28;20043;-73
2022/11/25 10:18:28;;;;;;;0.10;0.10;;;;;;;14.03;87.83;101394.81;4960651;28;20026;-73
2022/11/25 10:20:53;;;;;;;0.00;0.00;;;;;;;14.24;85.97;101357.06;4978503;28;20051;-73
2022/11/25 10:23:33;;;;;;;0.10;0.10;;;;;;;13.75;83.68;101402.53;4980403;28;20057;-72
2022/11/25 10:26:02;;;;;;;0.10;0.10;;;;;;;14.12;85.74;101386.94;4965551;28;20053;-73
2022/11/25 10:28:33;;;;;;;0.00;0.00;;;;;;;14.58;85.87;101407.34;4953817;28;20030;-71
2022/11/25 10:31:10;;;;;;;0.10;0.10;;;;;;;14.62;78.19;101406.09;4939278;28;20037;-72
2022/11/25 10:33:44;;;;;;;0.10;0.10;;;;;;;15.45;80.75;101411.47;4963142;28;20026;-72
2022/11/25 10:36:19;;;;;;;0.10;0.10;;;;;;;16.26;78.77;101409.63;4977160;28;20030;-72
2022/11/25 10:39:02;;;;;;;0.05;0.05;;;;;;;16.65;70.69;101408.72;4973143;28;20061;-72
2022/11/25 10:41:30;;;;;;;0.10;0.10;;;;;;;17.26;71.59;101422.00;4971084;28;20046;-72
2022/11/25 10:43:56;;;;;;;0.00;0.00;;;;;;;16.59;66.85;101425.56;4958753;28;20031;-73
2022/11/25 10:46:42;;;;;;;0.10;0.10;;;;;;;17.01;66.53;101427.94;4979618;28;20045;-72
2022/11/25 10:49:45;;;;;;;0.00;0.00;;;;;;;16.03;67.61;101436.13;4971461;28;20383;-72
2022/11/25 10:52:14;;;;;;;0.10;0.10;;;;;;;16.63;67.98;101432.41;4977684;28;20081;-72
2022/11/25 10:54:39;;;;;;;0.00;0.00;;;;;;;16.77;68.46;101434.69;4962656;28;20062;-72
2022/11/25 10:57:18;;;;;;;0.10;0.10;;;;;;;16.38;67.06;101423.88;4982301;28;21049;-72
2022/11/25 10:59:57;;;;;;;0.00;0.00;;;;;;;16.61;62.96;101437.13;4959531;28;20045;-72
2022/11/25 11:02:33;;;;;;;0.00;0.00;;;;;;;17.12;64.73;101431.47;4977866;28;20041;-72
2022/11/25 11:05:15;;;;;;;0.10;0.10;;;;;;;17.36;63.84;101448.06;4975183;28;20062;-73
2022/11/25 11:07:43;;;;;;;0.10;0.10;;;;;;;17.19;60.55;101448.88;4966964;28;20058;-72
2022/11/25 11:10:20;;;;;;;0.10;0.10;;;;;;;17.52;59.78;101442.00;4967997;28;20030;-70
2022/11/25 11:12:56;;;;;;;0.10;0.10;;;;;;;17.67;58.58;101447.78;4956175;28;20377;-71
2022/11/25 11:15:30;;;;;;;0.00;0.00;;;;;;;17.16;57.79;101450.03;4978027;28;20046;-72
2022/11/25 11:17:57;;;;;;;0.00;0.00;;;;;;;17.48;58.67;101462.31;4975368;28;20027;-71
2022/11/25 11:20:24;;;;;;;0.10;0.10;;;;;;;17.16;59.88;101458.19;4976931;28;20026;-70
2022/11/25 11:23:11;;;;;;;0.05;0.05;;;;;;;16.72;57.50;101460.50;4974006;28;20018;-71
2022/11/25 11:25:38;;;;;;;0.00;0.00;;;;;;;17.37;59.22;101462.53;4972761;28;20117;-70
2022/11/25 11:28:23;;;;;;;0.00;0.00;;;;;;;17.22;57.29;101462.16;4964521;28;20038;-71
2022/11/25 11:30:57;;;;;;;0.10;0.10;;;;;;;17.64;57.09;101468.97;4977900;28;20036;-71
2022/11/25 11:33:44;;;;;;;0.10;0.10;;;;;;;17.32;56.86;101475.69;4961387;28;20037;-71